sensor_id;sensor_type;location;lat;lon;timestamp;pressure;altitude;pressure_sealevel;temperature;humidity
73429;BME280;61643;49.564;17.412;2023-09-12T00:02:18;97923.78;;;16.99;100.00
73429;BME280;61643;49.564;17.412;2023-09-12T00:04:43;97929.34;;;16.94;100.00
73429;BME280;61643;49.564;17.412;2023-09-12T00:07:09;97917.44;;;16.90;100.00
73429;BME280;61643;49.564;17.412;2023-09-12T00:09:35;97917.34;;;16.95;100.00
73429;BME280;61643;49.564;17.412;2023-09-12T00:12:02;97918.25;;;16.90;100.00
73429;BME280;61643;49.564;17.412;2023-09-12T00:14:28;97919.59;;;16.93;100.00
73429;BME280;61643;49.564;17.412;2023-09-12T00:16:54;97912.41;;;16.97;100.00
73429;BME280;61643;49.564;17.412;2023-09-12T00:19:21;97917.06;;;16.96;100.00
73429;BME280;61643;49.564;17.412;2023-09-12T00:21:47;97923.22;;;16.88;100.00
73429;BME280;61643;49.564;17.412;2023-09-12T00:24:13;97911.13;;;16.81;100.00
73429;BME280;61643;49.564;17.412;2023-09-12T00:26:39;97908.25;;;16.63;100.00
73429;BME280;61643;49.564;17.412;2023-09-12T00:29:04;97906.81;;;16.66;100.00
73429;BME280;61643;49.564;17.412;2023-09-12T00:31:30;97908.63;;;16.70;100.00
73429;BME280;61643;49.564;17.412;2023-09-12T00:33:56;97906.31;;;16.64;100.00
73429;BME280;61643;49.564;17.412;2023-09-12T00:36:22;97904.72;;;16.63;100.00
73429;BME280;61643;49.564;17.412;2023-09-12T00:38:48;97910.97;;;16.63;100.00
73429;BME280;61643;49.564;17.412;2023-09-12T00:41:14;97906.44;;;16.59;100.00
73429;BME280;61643;49.564;17.412;2023-09-12T00:43:40;97904.31;;;16.56;100.00
73429;BME280;61643;49.564;17.412;2023-09-12T00:46:06;97912.56;;;16.64;100.00
73429;BME280;61643;49.564;17.412;2023-09-12T00:48:32;97901.19;;;16.62;100.00
73429;BME280;61643;49.564;17.412;2023-09-12T00:50:59;97909.63;;;16.61;100.00
73429;BME280;61643;49.564;17.412;2023-09-12T00:53:26;97907.09;;;16.51;100.00
73429;BME280;61643;49.564;17.412;2023-09-12T00:55:56;97894.31;;;16.51;100.00
73429;BME280;61643;49.564;17.412;2023-09-12T00:58:24;97904.53;;;16.59;100.00
73429;BME280;61643;49.564;17.412;2023-09-12T01:00:50;97908.03;;;16.60;100.00
73429;BME280;61643;49.564;17.412;2023-09-12T01:03:17;97906.44;;;16.59;100.00
73429;BME280;61643;49.564;17.412;2023-09-12T01:05:43;97907.13;;;16.64;100.00
73429;BME280;61643;49.564;17.412;2023-09-12T01:08:09;97896.34;;;16.46;100.00
73429;BME280;61643;49.564;17.412;2023-09-12T01:10:36;97901.59;;;16.42;100.00
73429;BME280;61643;49.564;17.412;2023-09-12T01:13:02;97903.09;;;16.48;100.00
73429;BME280;61643;49.564;17.412;2023-09-12T01:15:28;97901.59;;;16.56;100.00
73429;BME280;61643;49.564;17.412;2023-09-12T01:17:55;97892.50;;;16.47;100.00
73429;BME280;61643;49.564;17.412;2023-09-12T01:20:28;97894.53;;;16.41;100.00
73429;BME280;61643;49.564;17.412;2023-09-12T01:22:59;97888.69;;;16.34;100.00
73429;BME280;61643;49.564;17.412;2023-09-12T01:28:15;97896.44;;;16.41;100.00
73429;BME280;61643;49.564;17.412;2023-09-12T01:30:45;97899.16;;;16.41;100.00
73429;BME280;61643;49.564;17.412;2023-09-12T01:33:14;97895.50;;;16.18;100.00
73429;BME280;61643;49.564;17.412;2023-09-12T01:35:40;97888.16;;;16.05;100.00
73429;BME280;61643;49.564;17.412;2023-09-12T01:38:06;97892.00;;;16.17;100.00
73429;BME280;61643;49.564;17.412;2023-09-12T01:40:46;97889.38;;;16.26;100.00
73429;BME280;61643;49.564;17.412;2023-09-12T01:43:16;97890.19;;;16.27;100.00
73429;BME280;61643;49.564;17.412;2023-09-12T01:45:43;97893.94;;;16.31;100.00
73429;BME280;61643;49.564;17.412;2023-09-12T01:48:11;97888.69;;;16.34;100.00
73429;BME280;61643;49.564;17.412;2023-09-12T01:50:38;97891.81;;;16.28;100.00
73429;BME280;61643;49.564;17.412;2023-09-12T01:53:04;97902.66;;;16.14;100.00
73429;BME280;61643;49.564;17.412;2023-09-12T01:55:31;97893.13;;;16.16;100.00
73429;BME280;61643;49.564;17.412;2023-09-12T01:57:57;97899.72;;;16.10;100.00
73429;BME280;61643;49.564;17.412;2023-09-12T02:00:24;97894.91;;;16.07;100.00
73429;BME280;61643;49.564;17.412;2023-09-12T02:02:50;97880.84;;;16.05;100.00
73429;BME280;61643;49.564;17.412;2023-09-12T02:05:18;97892.91;;;16.13;100.00
73429;BME280;61643;49.564;17.412;2023-09-12T02:07:46;97894.50;;;16.14;100.00
73429;BME280;61643;49.564;17.412;2023-09-12T02:10:13;97901.53;;;16.01;100.00
73429;BME280;61643;49.564;17.412;2023-09-12T02:12:39;97896.28;;;15.91;100.00
73429;BME280;61643;49.564;17.412;2023-09-12T02:15:06;97899.91;;;15.87;100.00
73429;BME280;61643;49.564;17.412;2023-09-12T02:17:32;97901.81;;;15.86;100.00
73429;BME280;61643;49.564;17.412;2023-09-12T02:19:58;97893.75;;;15.81;100.00
73429;BME280;61643;49.564;17.412;2023-09-12T02:22:24;97894.16;;;15.88;100.00
73429;BME280;61643;49.564;17.412;2023-09-12T02:24:50;97891.97;;;15.90;100.00
73429;BME280;61643;49.564;17.412;2023-09-12T02:27:16;97890.56;;;15.93;100.00
73429;BME280;61643;49.564;17.412;2023-09-12T02:29:42;97899.28;;;15.90;100.00
73429;BME280;61643;49.564;17.412;2023-09-12T02:32:09;97894.69;;;15.90;100.00
73429;BME280;61643;49.564;17.412;2023-09-12T02:34:35;97901.13;;;15.94;100.00
73429;BME280;61643;49.564;17.412;2023-09-12T02:37:01;97899.91;;;15.87;100.00
73429;BME280;61643;49.564;17.412;2023-09-12T02:39:27;97892.75;;;15.77;100.00
73429;BME280;61643;49.564;17.412;2023-09-12T02:41:53;97891.88;;;15.63;100.00
73429;BME280;61643;49.564;17.412;2023-09-12T02:44:19;97890.56;;;15.60;100.00
73429;BME280;61643;49.564;17.412;2023-09-12T02:46:45;97893.06;;;15.57;100.00
73429;BME280;61643;49.564;17.412;2023-09-12T02:49:11;97895.19;;;15.60;100.00
73429;BME280;61643;49.564;17.412;2023-09-12T02:51:40;97891.31;;;15.66;100.00
73429;BME280;61643;49.564;17.412;2023-09-12T02:54:07;97905.28;;;15.73;100.00
73429;BME280;61643;49.564;17.412;2023-09-12T02:56:33;97889.69;;;15.65;100.00
73429;BME280;61643;49.564;17.412;2023-09-12T02:58:59;97900.44;;;15.70;100.00
73429;BME280;61643;49.564;17.412;2023-09-12T03:01:25;97901.25;;;15.70;100.00
73429;BME280;61643;49.564;17.412;2023-09-12T03:03:53;97909.91;;;15.72;100.00
73429;BME280;61643;49.564;17.412;2023-09-12T03:06:20;97897.91;;;15.60;100.00
73429;BME280;61643;49.564;17.412;2023-09-12T03:08:47;97906.44;;;15.53;100.00
73429;BME280;61643;49.564;17.412;2023-09-12T03:11:13;97902.91;;;15.53;100.00
73429;BME280;61643;49.564;17.412;2023-09-12T03:13:41;97902.69;;;15.49;100.00
73429;BME280;61643;49.564;17.412;2023-09-12T03:16:11;97907.50;;;15.52;100.00
73429;BME280;61643;49.564;17.412;2023-09-12T03:18:37;97906.16;;;15.55;100.00
73429;BME280;61643;49.564;17.412;2023-09-12T03:21:03;97917.69;;;15.60;100.00
73429;BME280;61643;49.564;17.412;2023-09-12T03:23:29;97907.72;;;15.56;100.00
73429;BME280;61643;49.564;17.412;2023-09-12T03:25:55;97914.59;;;15.48;100.00
73429;BME280;61643;49.564;17.412;2023-09-12T03:28:25;97906.50;;;15.30;100.00
73429;BME280;61643;49.564;17.412;2023-09-12T03:30:51;97912.38;;;15.18;100.00
73429;BME280;61643;49.564;17.412;2023-09-12T03:33:17;97909.34;;;15.19;100.00
73429;BME280;61643;49.564;17.412;2023-09-12T03:35:43;97905.84;;;15.19;100.00
73429;BME280;61643;49.564;17.412;2023-09-12T03:38:09;97909.38;;;15.01;100.00
73429;BME280;61643;49.564;17.412;2023-09-12T03:40:36;97906.34;;;15.02;100.00
73429;BME280;61643;49.564;17.412;2023-09-12T03:43:02;97913.66;;;15.02;100.00
73429;BME280;61643;49.564;17.412;2023-09-12T03:45:28;97916.25;;;15.12;100.00
73429;BME280;61643;49.564;17.412;2023-09-12T03:47:54;97917.19;;;15.21;100.00
73429;BME280;61643;49.564;17.412;2023-09-12T03:50:20;97919.19;;;15.15;100.00
73429;BME280;61643;49.564;17.412;2023-09-12T03:52:46;97927.53;;;15.00;100.00
73429;BME280;61643;49.564;17.412;2023-09-12T03:55:12;97912.66;;;14.79;100.00
73429;BME280;61643;49.564;17.412;2023-09-12T03:57:38;97916.91;;;14.85;100.00
73429;BME280;61643;49.564;17.412;2023-09-12T04:00:04;97913.53;;;14.93;100.00
73429;BME280;61643;49.564;17.412;2023-09-12T04:02:31;97914.84;;;14.96;100.00
73429;BME280;61643;49.564;17.412;2023-09-12T04:04:57;97909.50;;;14.91;100.00
73429;BME280;61643;49.564;17.412;2023-09-12T04:07:25;97916.03;;;14.90;100.00
73429;BME280;61643;49.564;17.412;2023-09-12T04:09:50;97912.63;;;14.98;100.00
73429;BME280;61643;49.564;17.412;2023-09-12T04:12:17;97918.28;;;15.01;100.00
73429;BME280;61643;49.564;17.412;2023-09-12T04:14:43;97919.63;;;15.04;100.00
73429;BME280;61643;49.564;17.412;2023-09-12T04:17:09;97916.03;;;15.08;100.00
73429;BME280;61643;49.564;17.412;2023-09-12T04:19:35;97913.09;;;15.05;100.00
73429;BME280;61643;49.564;17.412;2023-09-12T04:22:01;97927.97;;;15.07;100.00
73429;BME280;61643;49.564;17.412;2023-09-12T04:24:27;97926.50;;;15.15;100.00
73429;BME280;61643;49.564;17.412;2023-09-12T04:26:53;97922.69;;;15.16;100.00
73429;BME280;61643;49.564;17.412;2023-09-12T04:29:19;97924.41;;;15.12;100.00
73429;BME280;61643;49.564;17.412;2023-09-12T04:31:45;97928.25;;;15.06;100.00
73429;BME280;61643;49.564;17.412;2023-09-12T04:34:11;97922.69;;;14.97;100.00
73429;BME280;61643;49.564;17.412;2023-09-12T04:36:37;97926.88;;;14.90;100.00
73429;BME280;61643;49.564;17.412;2023-09-12T04:39:03;97929.13;;;15.01;100.00
73429;BME280;61643;49.564;17.412;2023-09-12T04:41:31;97920.44;;;15.04;100.00
73429;BME280;61643;49.564;17.412;2023-09-12T04:43:56;97928.69;;;15.13;100.00
73429;BME280;61643;49.564;17.412;2023-09-12T04:46:24;97933.19;;;15.22;100.00
73429;BME280;61643;49.564;17.412;2023-09-12T04:48:50;97925.28;;;15.26;100.00
73429;BME280;61643;49.564;17.412;2023-09-12T04:51:16;97924.16;;;15.27;100.00
73429;BME280;61643;49.564;17.412;2023-09-12T04:53:42;97927.88;;;15.31;100.00
73429;BME280;61643;49.564;17.412;2023-09-12T04:56:08;97925.72;;;15.33;100.00
73429;BME280;61643;49.564;17.412;2023-09-12T04:58:35;97930.22;;;15.38;100.00
73429;BME280;61643;49.564;17.412;2023-09-12T05:01:01;97929.06;;;15.44;100.00
73429;BME280;61643;49.564;17.412;2023-09-12T05:03:28;97934.44;;;15.49;100.00
73429;BME280;61643;49.564;17.412;2023-09-12T05:05:54;97935.53;;;15.48;100.00
73429;BME280;61643;49.564;17.412;2023-09-12T05:08:20;97938.16;;;15.53;100.00
73429;BME280;61643;49.564;17.412;2023-09-12T05:10:46;97933.16;;;15.60;100.00
73429;BME280;61643;49.564;17.412;2023-09-12T05:13:12;97940.00;;;15.57;100.00
73429;BME280;61643;49.564;17.412;2023-09-12T05:15:40;97942.66;;;15.62;100.00
73429;BME280;61643;49.564;17.412;2023-09-12T05:18:06;97940.56;;;15.73;100.00
73429;BME280;61643;49.564;17.412;2023-09-12T05:20:34;97936.06;;;15.82;100.00
73429;BME280;61643;49.564;17.412;2023-09-12T05:23:00;97934.28;;;15.91;100.00
73429;BME280;61643;49.564;17.412;2023-09-12T05:25:26;97939.75;;;16.05;100.00
73429;BME280;61643;49.564;17.412;2023-09-12T05:27:56;97937.13;;;16.00;100.00
73429;BME280;61643;49.564;17.412;2023-09-12T05:30:22;97936.03;;;16.14;100.00
73429;BME280;61643;49.564;17.412;2023-09-12T05:32:48;97935.56;;;16.26;100.00
73429;BME280;61643;49.564;17.412;2023-09-12T05:35:14;97938.41;;;16.35;100.00
73429;BME280;61643;49.564;17.412;2023-09-12T05:37:40;97936.56;;;16.30;100.00
73429;BME280;61643;49.564;17.412;2023-09-12T05:40:06;97938.69;;;16.47;100.00
73429;BME280;61643;49.564;17.412;2023-09-12T05:42:32;97946.09;;;16.60;100.00
73429;BME280;61643;49.564;17.412;2023-09-12T05:44:58;97957.16;;;16.77;100.00
73429;BME280;61643;49.564;17.412;2023-09-12T05:47:24;97944.53;;;16.95;100.00
73429;BME280;61643;49.564;17.412;2023-09-12T05:49:50;97952.66;;;17.08;100.00
73429;BME280;61643;49.564;17.412;2023-09-12T05:52:16;97953.56;;;17.17;100.00
73429;BME280;61643;49.564;17.412;2023-09-12T05:54:42;97947.28;;;17.31;100.00
73429;BME280;61643;49.564;17.412;2023-09-12T05:57:09;97948.56;;;17.47;100.00
73429;BME280;61643;49.564;17.412;2023-09-12T05:59:37;97956.19;;;17.58;100.00
73429;BME280;61643;49.564;17.412;2023-09-12T06:02:06;97957.56;;;17.69;100.00
73429;BME280;61643;49.564;17.412;2023-09-12T06:04:35;97962.78;;;17.80;100.00
73429;BME280;61643;49.564;17.412;2023-09-12T06:07:02;97963.34;;;17.90;100.00
73429;BME280;61643;49.564;17.412;2023-09-12T06:09:29;97959.53;;;18.00;100.00
73429;BME280;61643;49.564;17.412;2023-09-12T06:11:55;97954.16;;;18.08;100.00
73429;BME280;61643;49.564;17.412;2023-09-12T06:14:21;97961.56;;;18.16;100.00
73429;BME280;61643;49.564;17.412;2023-09-12T06:16:47;97959.34;;;18.18;100.00
73429;BME280;61643;49.564;17.412;2023-09-12T06:19:13;97958.59;;;18.27;100.00
73429;BME280;61643;49.564;17.412;2023-09-12T06:21:45;97960.22;;;18.36;100.00
73429;BME280;61643;49.564;17.412;2023-09-12T06:24:16;97957.56;;;18.45;100.00
73429;BME280;61643;49.564;17.412;2023-09-12T06:26:42;97950.53;;;18.52;100.00
73429;BME280;61643;49.564;17.412;2023-09-12T06:29:09;97960.56;;;18.65;100.00
73429;BME280;61643;49.564;17.412;2023-09-12T06:31:35;97951.91;;;18.72;100.00
73429;BME280;61643;49.564;17.412;2023-09-12T06:34:02;97955.16;;;18.83;100.00
73429;BME280;61643;49.564;17.412;2023-09-12T06:36:28;97952.94;;;18.93;100.00
73429;BME280;61643;49.564;17.412;2023-09-12T06:38:57;97954.25;;;19.04;100.00
73429;BME280;61643;49.564;17.412;2023-09-12T06:41:24;97959.41;;;19.14;100.00
73429;BME280;61643;49.564;17.412;2023-09-12T06:43:50;97953.97;;;19.23;100.00
73429;BME280;61643;49.564;17.412;2023-09-12T06:46:16;97965.06;;;19.35;100.00
73429;BME280;61643;49.564;17.412;2023-09-12T06:48:46;97965.09;;;19.44;100.00
73429;BME280;61643;49.564;17.412;2023-09-12T06:51:12;97962.38;;;19.52;100.00
73429;BME280;61643;49.564;17.412;2023-09-12T06:53:38;97961.44;;;19.57;100.00
73429;BME280;61643;49.564;17.412;2023-09-12T06:56:05;97967.03;;;19.60;100.00
73429;BME280;61643;49.564;17.412;2023-09-12T06:58:31;97971.53;;;19.65;100.00
73429;BME280;61643;49.564;17.412;2023-09-12T07:01:04;97975.38;;;19.73;100.00
73429;BME280;61643;49.564;17.412;2023-09-12T07:03:35;97971.03;;;19.80;100.00
73429;BME280;61643;49.564;17.412;2023-09-12T07:06:02;97967.19;;;19.81;100.00
73429;BME280;61643;49.564;17.412;2023-09-12T07:08:30;97968.97;;;19.86;100.00
73429;BME280;61643;49.564;17.412;2023-09-12T07:10:56;97975.38;;;19.90;100.00
73429;BME280;61643;49.564;17.412;2023-09-12T07:13:23;97964.75;;;19.97;100.00
73429;BME280;61643;49.564;17.412;2023-09-12T07:15:50;97977.44;;;20.01;100.00
73429;BME280;61643;49.564;17.412;2023-09-12T07:18:17;97969.75;;;20.03;100.00
73429;BME280;61643;49.564;17.412;2023-09-12T07:20:44;97969.91;;;20.07;100.00
73429;BME280;61643;49.564;17.412;2023-09-12T07:23:11;97977.44;;;20.10;100.00
73429;BME280;61643;49.564;17.412;2023-09-12T07:25:41;97976.78;;;20.13;100.00
73429;BME280;61643;49.564;17.412;2023-09-12T07:28:07;97980.13;;;20.19;100.00
73429;BME280;61643;49.564;17.412;2023-09-12T07:30:34;97976.78;;;20.22;100.00
73429;BME280;61643;49.564;17.412;2023-09-12T07:33:00;97987.53;;;20.35;100.00
73429;BME280;61643;49.564;17.412;2023-09-12T07:35:26;97983.19;;;20.43;100.00
73429;BME280;61643;49.564;17.412;2023-09-12T07:37:52;97987.19;;;20.54;100.00
73429;BME280;61643;49.564;17.412;2023-09-12T07:40:18;97989.25;;;20.57;100.00
73429;BME280;61643;49.564;17.412;2023-09-12T07:42:44;97989.06;;;20.62;100.00
73429;BME280;61643;49.564;17.412;2023-09-12T07:45:10;97996.63;;;20.65;100.00
73429;BME280;61643;49.564;17.412;2023-09-12T07:47:37;98003.50;;;20.71;100.00
73429;BME280;61643;49.564;17.412;2023-09-12T07:50:03;98000.13;;;20.74;100.00
73429;BME280;61643;49.564;17.412;2023-09-12T07:52:30;97999.94;;;20.79;100.00
73429;BME280;61643;49.564;17.412;2023-09-12T07:54:59;97997.00;;;20.84;100.00
73429;BME280;61643;49.564;17.412;2023-09-12T07:57:25;97995.56;;;20.87;100.00
73429;BME280;61643;49.564;17.412;2023-09-12T07:59:51;97997.44;;;20.95;100.00
73429;BME280;61643;49.564;17.412;2023-09-12T08:02:17;97996.47;;;20.99;100.00
73429;BME280;61643;49.564;17.412;2023-09-12T08:04:43;98002.22;;;21.06;100.00
73429;BME280;61643;49.564;17.412;2023-09-12T08:07:09;97998.53;;;21.11;100.00
73429;BME280;61643;49.564;17.412;2023-09-12T08:09:55;98005.28;;;21.14;100.00
73429;BME280;61643;49.564;17.412;2023-09-12T08:12:23;98000.44;;;21.19;100.00
73429;BME280;61643;49.564;17.412;2023-09-12T08:14:50;98007.31;;;21.25;100.00
73429;BME280;61643;49.564;17.412;2023-09-12T08:17:16;98004.03;;;21.32;100.00
73429;BME280;61643;49.564;17.412;2023-09-12T08:19:42;97999.69;;;21.31;100.00
73429;BME280;61643;49.564;17.412;2023-09-12T08:22:09;98001.59;;;21.39;100.00
73429;BME280;61643;49.564;17.412;2023-09-12T08:24:35;98003.50;;;21.38;99.78
73429;BME280;61643;49.564;17.412;2023-09-12T08:27:02;98002.06;;;21.41;100.00
73429;BME280;61643;49.564;17.412;2023-09-12T08:29:28;98008.50;;;21.45;100.00
73429;BME280;61643;49.564;17.412;2023-09-12T08:31:55;98003.94;;;21.49;100.00
73429;BME280;61643;49.564;17.412;2023-09-12T08:34:21;98004.41;;;21.51;100.00
73429;BME280;61643;49.564;17.412;2023-09-12T08:36:47;97999.66;;;21.60;100.00
73429;BME280;61643;49.564;17.412;2023-09-12T08:39:17;97999.47;;;21.65;99.31
73429;BME280;61643;49.564;17.412;2023-09-12T08:41:43;97997.00;;;21.72;98.15
73429;BME280;61643;49.564;17.412;2023-09-12T08:44:12;98000.47;;;21.81;97.88
73429;BME280;61643;49.564;17.412;2023-09-12T08:46:41;98003.81;;;21.87;96.68
73429;BME280;61643;49.564;17.412;2023-09-12T08:49:08;97998.75;;;21.97;97.60
73429;BME280;61643;49.564;17.412;2023-09-12T08:51:44;97998.69;;;22.06;98.05
73429;BME280;61643;49.564;17.412;2023-09-12T08:54:10;97991.66;;;22.17;96.00
73429;BME280;61643;49.564;17.412;2023-09-12T08:56:39;97989.28;;;22.28;97.05
73429;BME280;61643;49.564;17.412;2023-09-12T08:59:06;97999.00;;;22.37;96.26
73429;BME280;61643;49.564;17.412;2023-09-12T09:01:33;97990.69;;;22.46;93.93
73429;BME280;61643;49.564;17.412;2023-09-12T09:04:02;97995.63;;;22.52;94.59
73429;BME280;61643;49.564;17.412;2023-09-12T09:06:30;97987.41;;;22.52;94.57
73429;BME280;61643;49.564;17.412;2023-09-12T09:08:59;97994.13;;;22.55;93.47
73429;BME280;61643;49.564;17.412;2023-09-12T09:11:25;97990.59;;;22.54;93.15
73429;BME280;61643;49.564;17.412;2023-09-12T09:13:54;97986.16;;;22.62;94.14
73429;BME280;61643;49.564;17.412;2023-09-12T09:16:20;97981.59;;;22.66;93.10
73429;BME280;61643;49.564;17.412;2023-09-12T09:21:21;97976.72;;;22.72;93.80
73429;BME280;61643;49.564;17.412;2023-09-12T09:23:52;97980.03;;;22.77;94.82
73429;BME280;61643;49.564;17.412;2023-09-12T09:26:18;97980.50;;;22.91;96.17
73429;BME280;61643;49.564;17.412;2023-09-12T09:28:44;97971.25;;;22.96;92.98
73429;BME280;61643;49.564;17.412;2023-09-12T09:31:12;97981.75;;;23.06;94.62
73429;BME280;61643;49.564;17.412;2023-09-12T09:33:39;97979.94;;;23.10;93.41
73429;BME280;61643;49.564;17.412;2023-09-12T09:36:07;97982.19;;;23.08;92.90
73429;BME280;61643;49.564;17.412;2023-09-12T09:38:36;97982.09;;;23.17;91.14
73429;BME280;61643;49.564;17.412;2023-09-12T09:41:08;97978.66;;;23.20;90.74
73429;BME280;61643;49.564;17.412;2023-09-12T09:43:35;97979.22;;;23.25;91.85
73429;BME280;61643;49.564;17.412;2023-09-12T09:46:02;97961.81;;;23.33;91.58
73429;BME280;61643;49.564;17.412;2023-09-12T09:48:29;97970.66;;;23.51;92.23
73429;BME280;61643;49.564;17.412;2023-09-12T09:51:01;97973.59;;;23.58;90.86
73429;BME280;61643;49.564;17.412;2023-09-12T09:53:29;97969.13;;;23.66;89.39
73429;BME280;61643;49.564;17.412;2023-09-12T09:56:12;97978.09;;;23.78;88.90
73429;BME280;61643;49.564;17.412;2023-09-12T09:58:58;97974.16;;;23.91;90.60
73429;BME280;61643;49.564;17.412;2023-09-12T10:01:29;97972.78;;;23.97;87.87
73429;BME280;61643;49.564;17.412;2023-09-12T10:03:59;97974.03;;;24.00;86.90
73429;BME280;61643;49.564;17.412;2023-09-12T10:06:29;97979.41;;;23.96;86.89
73429;BME280;61643;49.564;17.412;2023-09-12T10:08:58;97968.88;;;23.98;86.39
73429;BME280;61643;49.564;17.412;2023-09-12T10:11:25;97969.75;;;24.02;85.72
73429;BME280;61643;49.564;17.412;2023-09-12T10:13:57;97973.69;;;24.01;84.51
73429;BME280;61643;49.564;17.412;2023-09-12T10:16:24;97970.47;;;23.99;83.32
73429;BME280;61643;49.564;17.412;2023-09-12T10:21:48;97970.56;;;24.03;82.59
73429;BME280;61643;49.564;17.412;2023-09-12T10:24:15;97971.38;;;24.03;84.93
73429;BME280;61643;49.564;17.412;2023-09-12T10:26:43;97965.16;;;24.07;84.09
73429;BME280;61643;49.564;17.412;2023-09-12T10:29:14;97966.88;;;24.11;84.02
73429;BME280;61643;49.564;17.412;2023-09-12T10:31:43;97958.75;;;24.15;85.00
73429;BME280;61643;49.564;17.412;2023-09-12T10:34:12;97965.44;;;24.29;84.93
73429;BME280;61643;49.564;17.412;2023-09-12T10:36:40;97956.94;;;24.34;82.25
73429;BME280;61643;49.564;17.412;2023-09-12T10:39:09;97959.88;;;24.41;81.10
73429;BME280;61643;49.564;17.412;2023-09-12T10:41:38;97959.69;;;24.50;80.17
73429;BME280;61643;49.564;17.412;2023-09-12T10:44:11;97958.88;;;24.49;79.44
73429;BME280;61643;49.564;17.412;2023-09-12T10:46:38;97959.34;;;24.52;78.31
73429;BME280;61643;49.564;17.412;2023-09-12T10:49:09;97958.28;;;24.56;77.78
73429;BME280;61643;49.564;17.412;2023-09-12T10:51:46;97956.50;;;24.64;77.67
73429;BME280;61643;49.564;17.412;2023-09-12T10:54:24;97959.34;;;24.67;76.90
73429;BME280;61643;49.564;17.412;2023-09-12T10:57:22;97951.53;;;24.69;78.45
73429;BME280;61643;49.564;17.412;2023-09-12T11:02:34;97950.81;;;24.72;78.13
73429;BME280;61643;49.564;17.412;2023-09-12T11:05:03;97951.28;;;24.74;77.69
73429;BME280;61643;49.564;17.412;2023-09-12T11:10:28;97947.22;;;24.84;80.00
73429;BME280;61643;49.564;17.412;2023-09-12T11:12:57;97952.34;;;24.85;79.62
73429;BME280;61643;49.564;17.412;2023-09-12T11:15:25;97947.66;;;24.86;78.56
73429;BME280;61643;49.564;17.412;2023-09-12T11:18:03;97949.06;;;24.95;78.67
73429;BME280;61643;49.564;17.412;2023-09-12T11:20:58;97942.31;;;24.93;78.35
73429;BME280;61643;49.564;17.412;2023-09-12T11:23:25;97945.59;;;24.98;79.21
73429;BME280;61643;49.564;17.412;2023-09-12T11:26:17;97940.97;;;25.03;78.27
73429;BME280;61643;49.564;17.412;2023-09-12T11:28:44;97940.97;;;25.03;78.01
73429;BME280;61643;49.564;17.412;2023-09-12T11:31:10;97939.47;;;25.05;77.30
73429;BME280;61643;49.564;17.412;2023-09-12T11:33:36;97935.09;;;25.04;78.42
73429;BME280;61643;49.564;17.412;2023-09-12T11:36:13;97943.19;;;25.13;79.73
73429;BME280;61643;49.564;17.412;2023-09-12T11:38:39;97942.88;;;25.18;79.24
73429;BME280;61643;49.564;17.412;2023-09-12T11:41:05;97932.66;;;25.18;76.72
73429;BME280;61643;49.564;17.412;2023-09-12T11:43:31;97940.25;;;25.21;80.18
73429;BME280;61643;49.564;17.412;2023-09-12T11:45:58;97929.22;;;25.21;78.09
73429;BME280;61643;49.564;17.412;2023-09-12T11:48:24;97932.88;;;25.10;77.17
73429;BME280;61643;49.564;17.412;2023-09-12T11:50:55;97919.19;;;25.13;77.25
73429;BME280;61643;49.564;17.412;2023-09-12T11:53:26;97924.41;;;25.18;77.87
73429;BME280;61643;49.564;17.412;2023-09-12T11:55:59;97928.59;;;25.28;77.04
73429;BME280;61643;49.564;17.412;2023-09-12T11:58:26;97931.75;;;25.30;76.28
73429;BME280;61643;49.564;17.412;2023-09-12T12:00:56;97927.94;;;25.34;77.66
73429;BME280;61643;49.564;17.412;2023-09-12T12:03:24;97932.28;;;25.35;75.87
73429;BME280;61643;49.564;17.412;2023-09-12T12:05:52;97920.97;;;25.40;76.49
73429;BME280;61643;49.564;17.412;2023-09-12T12:08:19;97919.47;;;25.43;76.87
73429;BME280;61643;49.564;17.412;2023-09-12T12:10:52;97919.16;;;25.48;75.49
73429;BME280;61643;49.564;17.412;2023-09-12T12:13:19;97917.31;;;25.52;74.68
73429;BME280;61643;49.564;17.412;2023-09-12T12:15:46;97922.19;;;25.59;75.08
73429;BME280;61643;49.564;17.412;2023-09-12T12:18:12;97916.00;;;25.65;74.43
73429;BME280;61643;49.564;17.412;2023-09-12T12:20:38;97922.13;;;25.74;76.50
73429;BME280;61643;49.564;17.412;2023-09-12T12:23:04;97918.41;;;25.67;75.52
73429;BME280;61643;49.564;17.412;2023-09-12T12:25:34;97913.56;;;25.60;75.78
73429;BME280;61643;49.564;17.412;2023-09-12T12:28:01;97908.84;;;25.61;76.51
73429;BME280;61643;49.564;17.412;2023-09-12T12:30:30;97903.03;;;25.66;75.84
73429;BME280;61643;49.564;17.412;2023-09-12T12:33:00;97905.13;;;25.72;75.88
73429;BME280;61643;49.564;17.412;2023-09-12T12:35:26;97903.69;;;25.78;76.06
73429;BME280;61643;49.564;17.412;2023-09-12T12:37:54;97910.09;;;25.82;75.10
73429;BME280;61643;49.564;17.412;2023-09-12T12:40:21;97908.63;;;25.88;75.28
73429;BME280;61643;49.564;17.412;2023-09-12T12:42:47;97908.34;;;25.93;75.35
73429;BME280;61643;49.564;17.412;2023-09-12T12:45:15;97905.25;;;25.99;75.93
73429;BME280;61643;49.564;17.412;2023-09-12T12:47:42;97904.59;;;26.05;75.14
73429;BME280;61643;49.564;17.412;2023-09-12T12:50:11;97909.09;;;26.13;74.56
73429;BME280;61643;49.564;17.412;2023-09-12T12:52:38;97903.03;;;26.04;73.33
73429;BME280;61643;49.564;17.412;2023-09-12T12:55:10;97899.88;;;26.06;74.64
73429;BME280;61643;49.564;17.412;2023-09-12T12:57:41;97899.53;;;26.07;76.55
73429;BME280;61643;49.564;17.412;2023-09-12T13:00:12;97899.94;;;26.09;76.32